Time;durP1;ratioP1;P1;durP2;ratioP2;P2;SDS_P1;SDS_P2;PMS_P1;PMS_P2;Temp;Humidity;BMP_temperature;BMP_pressure;BME280_temperature;BME280_humidity;BME280_pressure;Samples;Min_cycle;Max_cycle;Signal;HPM_P1;HPM_P2
2023/03/16 00:02:31;;;;;;;4.72;2.65;;;;;;;;;;6342452;27;20306;-70
2023/03/16 00:05:33;;;;;;;4.38;2.70;;;;;;;;;;6343237;28;20061;-69
2023/03/16 00:08:35;;;;;;;4.80;2.50;;;;;;;;;;6343338;28;20318;-71
2023/03/16 00:11:38;;;;;;;5.40;2.50;;;;;;;;;;6341345;27;20332;-69
2023/03/16 00:14:40;;;;;;;174.27;79.72;;;;;;;;;;6343960;27;20054;-72
2023/03/16 00:17:47;;;;;;;57.05;26.27;;;;;;;;;;6342205;28;20040;-72
2023/03/16 00:20:52;;;;;;;74.07;31.92;;;;;;;;;;6339702;28;20054;-72
2023/03/16 00:23:54;;;;;;;35.60;16.05;;;;;;;;;;6339490;28;20074;-72
2023/03/16 00:26:57;;;;;;;16.15;8.07;;;;;;;;;;6337293;28;20052;-71
2023/03/16 00:30:02;;;;;;;7.18;3.13;;;;;;;;;;6340023;28;20316;-65
2023/03/16 00:33:04;;;;;;;4.43;2.28;;;;;;;;;;6337745;27;20055;-70
2023/03/16 00:36:08;;;;;;;3.47;2.15;;;;;;;;;;6338473;28;20039;-69
2023/03/16 00:39:10;;;;;;;3.90;2.38;;;;;;;;;;6337561;28;20056;-71
2023/03/16 00:42:15;;;;;;;4.68;2.45;;;;;;;;;;6339829;27;20312;-69
2023/03/16 00:45:17;;;;;;;4.03;2.30;;;;;;;;;;6337338;28;20143;-70
2023/03/16 00:48:20;;;;;;;5.57;2.55;;;;;;;;;;6335063;28;20051;-69
2023/03/16 00:51:22;;;;;;;3.53;2.28;;;;;;;;;;6336971;28;20560;-67
2023/03/16 00:54:27;;;;;;;3.95;2.13;;;;;;;;;;6337542;28;20084;-70
2023/03/16 00:57:30;;;;;;;3.33;2.20;;;;;;;;;;6337253;28;20059;-69
2023/03/16 01:00:39;;;;;;;4.50;2.40;;;;;;;;;;6342095;28;20063;-71
2023/03/16 01:03:41;;;;;;;3.80;2.28;;;;;;;;;;6339806;27;20056;-69
2023/03/16 01:06:42;;;;;;;4.38;2.28;;;;;;;;;;6341141;28;20055;-70
2023/03/16 01:09:45;;;;;;;3.47;2.33;;;;;;;;;;6339709;28;20070;-70
2023/03/16 01:12:54;;;;;;;3.90;2.35;;;;;;;;;;6326535;27;20297;-70
2023/03/16 01:15:56;;;;;;;5.97;2.35;;;;;;;;;;6336739;28;20325;-67
2023/03/16 01:18:58;;;;;;;3.00;2.08;;;;;;;;;;6334906;28;20048;-70
2023/03/16 01:22:00;;;;;;;5.45;2.38;;;;;;;;;;6336654;28;20055;-66
2023/03/16 01:29:11;;;;;;;4.72;1.90;;;;;;;;;;6311883;27;20064;-70
2023/03/16 01:32:14;;;;;;;5.20;1.70;;;;;;;;;;6337939;28;20369;-68
2023/03/16 01:35:17;;;;;;;3.88;2.17;;;;;;;;;;6338449;27;20144;-70
2023/03/16 01:38:18;;;;;;;3.55;1.85;;;;;;;;;;6341235;28;20109;-70
2023/03/16 01:41:20;;;;;;;4.05;1.85;;;;;;;;;;6336188;28;20093;-70
2023/03/16 01:44:29;;;;;;;2.85;1.90;;;;;;;;;;6336744;28;20060;-72
2023/03/16 01:47:36;;;;;;;3.65;2.17;;;;;;;;;;6338333;28;20103;-72
2023/03/16 01:50:38;;;;;;;5.47;2.00;;;;;;;;;;6336628;28;20039;-70
2023/03/16 01:53:41;;;;;;;2.85;1.77;;;;;;;;;;6338513;28;20394;-76
2023/03/16 01:56:46;;;;;;;3.47;1.77;;;;;;;;;;6337544;28;20354;-71
2023/03/16 01:59:54;;;;;;;3.33;1.92;;;;;;;;;;6335219;28;20044;-70
2023/03/16 02:02:59;;;;;;;4.05;2.30;;;;;;;;;;6338100;28;20040;-70
2023/03/16 02:06:04;;;;;;;4.07;2.22;;;;;;;;;;6343213;28;20044;-72
2023/03/16 02:09:06;;;;;;;3.90;2.10;;;;;;;;;;6336748;27;20218;-73
2023/03/16 02:12:17;;;;;;;5.15;1.75;;;;;;;;;;6340334;28;20063;-71
2023/03/16 02:15:20;;;;;;;5.00;2.00;;;;;;;;;;6339862;28;20106;-70
2023/03/16 02:18:22;;;;;;;3.90;1.80;;;;;;;;;;6343227;28;20397;-71
2023/03/16 02:21:31;;;;;;;10.70;1.80;;;;;;;;;;6342818;28;20079;-70
2023/03/16 02:24:33;;;;;;;2.45;1.40;;;;;;;;;;6336837;28;20098;-73
2023/03/16 02:27:56;;;;;;;3.63;1.58;;;;;;;;;;6339187;28;20058;-71
2023/03/16 02:31:00;;;;;;;2.95;1.67;;;;;;;;;;6332660;28;20074;-70
2023/03/16 02:34:02;;;;;;;3.53;1.98;;;;;;;;;;6347249;28;20050;-70
2023/03/16 02:37:07;;;;;;;3.72;2.08;;;;;;;;;;6350893;28;20047;-70
2023/03/16 02:40:21;;;;;;;4.72;2.33;;;;;;;;;;6344368;28;20365;-71
2023/03/16 02:43:27;;;;;;;6.10;2.90;;;;;;;;;;6343656;27;20247;-70
2023/03/16 02:46:34;;;;;;;5.35;2.70;;;;;;;;;;6345439;28;20059;-71
2023/03/16 02:49:37;;;;;;;4.38;2.45;;;;;;;;;;6301395;28;20246;-73
2023/03/16 02:52:41;;;;;;;4.93;2.53;;;;;;;;;;6346292;28;20076;-70
2023/03/16 02:55:46;;;;;;;4.10;2.20;;;;;;;;;;6346884;28;20120;-70
2023/03/16 02:58:48;;;;;;;3.75;2.17;;;;;;;;;;6346068;27;20056;-72
2023/03/16 03:01:52;;;;;;;5.65;2.47;;;;;;;;;;6339060;28;20040;-70
2023/03/16 03:04:54;;;;;;;2.25;1.77;;;;;;;;;;6339757;28;20047;-69
2023/03/16 03:07:56;;;;;;;8.95;2.17;;;;;;;;;;6336094;28;20075;-70
2023/03/16 03:11:01;;;;;;;3.72;1.90;;;;;;;;;;6343734;28;20040;-69
2023/03/16 03:14:03;;;;;;;3.47;1.88;;;;;;;;;;6338961;27;20055;-70
2023/03/16 03:20:36;;;;;;;3.45;2.00;;;;;;;;;;6283792;28;20114;-69
2023/03/16 03:23:39;;;;;;;4.80;2.78;;;;;;;;;;6341344;27;20276;-71
2023/03/16 03:26:43;;;;;;;5.55;2.15;;;;;;;;;;6339198;28;20232;-72
2023/03/16 03:29:48;;;;;;;3.47;1.55;;;;;;;;;;6340582;27;20128;-72
2023/03/16 03:32:54;;;;;;;3.47;1.80;;;;;;;;;;6336074;28;20044;-67
2023/03/16 03:35:57;;;;;;;2.60;1.38;;;;;;;;;;6341253;28;20056;-71
2023/03/16 03:39:03;;;;;;;2.95;1.50;;;;;;;;;;6341404;28;20384;-70
2023/03/16 03:42:06;;;;;;;6.32;1.70;;;;;;;;;;6341592;28;21078;-72
2023/03/16 03:45:11;;;;;;;2.75;1.60;;;;;;;;;;6340276;28;20074;-70
2023/03/16 03:48:14;;;;;;;3.55;1.98;;;;;;;;;;6339685;28;20056;-71
2023/03/16 03:51:17;;;;;;;3.70;1.10;;;;;;;;;;6338527;27;20047;-71
2023/03/16 03:54:18;;;;;;;3.65;1.50;;;;;;;;;;6340343;28;20048;-70
2023/03/16 03:57:23;;;;;;;3.75;1.58;;;;;;;;;;6338017;28;20124;-72
2023/03/16 04:00:25;;;;;;;2.63;1.33;;;;;;;;;;6337058;27;20052;-72
2023/03/16 04:03:32;;;;;;;6.28;1.88;;;;;;;;;;6337903;28;20067;-71
2023/03/16 04:06:33;;;;;;;3.15;1.40;;;;;;;;;;6338342;28;20380;-70
2023/03/16 04:09:35;;;;;;;2.42;1.40;;;;;;;;;;6334467;28;20052;-71
2023/03/16 04:12:38;;;;;;;3.88;1.48;;;;;;;;;;6337723;27;20051;-70
2023/03/16 04:15:40;;;;;;;2.38;1.55;;;;;;;;;;6330320;28;20096;-71
2023/03/16 04:18:49;;;;;;;2.70;1.40;;;;;;;;;;6341132;28;20050;-71
2023/03/16 04:21:53;;;;;;;2.40;1.55;;;;;;;;;;6335214;27;20308;-71
2023/03/16 04:24:55;;;;;;;3.75;1.42;;;;;;;;;;6340265;27;20051;-69
2023/03/16 04:31:15;;;;;;;2.78;2.10;;;;;;;;;;6333833;28;20583;-70
2023/03/16 04:34:27;;;;;;;3.05;1.60;;;;;;;;;;6335542;28;20043;-72
2023/03/16 04:37:33;;;;;;;3.15;1.58;;;;;;;;;;6334946;27;20048;-70
2023/03/16 04:40:37;;;;;;;4.47;1.88;;;;;;;;;;6324449;28;20040;-69
2023/03/16 04:43:39;;;;;;;2.45;1.52;;;;;;;;;;6338171;28;20389;-67
2023/03/16 04:46:41;;;;;;;4.47;1.73;;;;;;;;;;6338145;28;20058;-69
2023/03/16 04:49:47;;;;;;;5.30;1.83;;;;;;;;;;6337362;28;20106;-69
2023/03/16 04:52:49;;;;;;;5.90;1.80;;;;;;;;;;6336675;28;20055;-70
2023/03/16 04:55:51;;;;;;;2.72;1.48;;;;;;;;;;6336222;27;20077;-69
2023/03/16 04:58:55;;;;;;;3.00;1.75;;;;;;;;;;6339040;28;20054;-69
2023/03/16 05:01:57;;;;;;;3.25;1.70;;;;;;;;;;6339560;27;20055;-70
2023/03/16 05:05:01;;;;;;;2.92;1.73;;;;;;;;;;6334601;27;20133;-70
2023/03/16 05:08:18;;;;;;;5.43;1.60;;;;;;;;;;6339078;28;20420;-70
2023/03/16 05:11:20;;;;;;;4.13;1.90;;;;;;;;;;6331246;28;20071;-69
2023/03/16 05:14:22;;;;;;;3.28;1.50;;;;;;;;;;6337179;27;20387;-71
2023/03/16 05:17:24;;;;;;;2.33;1.65;;;;;;;;;;6338726;28;20132;-70
2023/03/16 05:20:28;;;;;;;2.90;1.80;;;;;;;;;;6338845;28;20111;-69
2023/03/16 05:23:30;;;;;;;3.70;1.65;;;;;;;;;;6334396;28;20067;-70
2023/03/16 05:26:32;;;;;;;2.97;1.50;;;;;;;;;;6337493;28;20059;-70
2023/03/16 05:29:34;;;;;;;3.97;1.73;;;;;;;;;;6336851;28;20067;-70
2023/03/16 05:32:36;;;;;;;3.72;1.90;;;;;;;;;;6337211;28;20051;-70
2023/03/16 05:35:40;;;;;;;2.97;1.70;;;;;;;;;;6334714;28;20097;-70
2023/03/16 05:38:42;;;;;;;5.13;1.90;;;;;;;;;;6340212;28;20472;-70
2023/03/16 05:41:46;;;;;;;3.00;1.70;;;;;;;;;;6335289;27;20052;-69
2023/03/16 05:44:51;;;;;;;6.38;1.85;;;;;;;;;;6333835;28;20224;-70
2023/03/16 05:47:53;;;;;;;2.35;1.58;;;;;;;;;;6350188;27;20051;-71
2023/03/16 05:51:00;;;;;;;2.88;1.88;;;;;;;;;;6362544;27;20043;-69
2023/03/16 05:54:02;;;;;;;5.15;2.00;;;;;;;;;;6361188;27;20274;-70
2023/03/16 05:57:05;;;;;;;4.40;2.08;;;;;;;;;;6361814;27;20047;-71
2023/03/16 06:00:13;;;;;;;3.07;1.70;;;;;;;;;;6359653;27;20111;-70
2023/03/16 06:03:34;;;;;;;3.25;2.03;;;;;;;;;;6347000;27;20092;-70
2023/03/16 06:06:37;;;;;;;5.15;2.10;;;;;;;;;;6347389;27;20127;-70
2023/03/16 06:09:39;;;;;;;4.05;2.15;;;;;;;;;;6359195;27;20047;-70
2023/03/16 06:12:42;;;;;;;6.03;2.03;;;;;;;;;;6362931;27;20119;-70
2023/03/16 06:15:48;;;;;;;3.35;2.00;;;;;;;;;;6358831;27;20040;-70
2023/03/16 06:18:50;;;;;;;5.93;2.40;;;;;;;;;;6357620;27;20400;-72
2023/03/16 06:21:53;;;;;;;4.65;2.30;;;;;;;;;;6362038;27;20043;-71
2023/03/16 06:24:55;;;;;;;4.73;2.53;;;;;;;;;;6359388;27;20053;-70
2023/03/16 06:28:08;;;;;;;3.47;2.00;;;;;;;;;;6359566;27;20064;-72
2023/03/16 06:31:10;;;;;;;3.20;2.03;;;;;;;;;;6360643;28;20346;-67
2023/03/16 06:34:11;;;;;;;7.03;2.38;;;;;;;;;;6363060;27;20058;-69
2023/03/16 06:37:15;;;;;;;4.03;2.00;;;;;;;;;;6360637;27;20116;-69
2023/03/16 06:40:17;;;;;;;5.78;1.98;;;;;;;;;;6359391;27;20569;-69
2023/03/16 06:43:19;;;;;;;7.57;2.33;;;;;;;;;;6360063;27;20081;-68
2023/03/16 06:46:21;;;;;;;4.15;2.15;;;;;;;;;;6358171;27;20055;-69
2023/03/16 06:49:23;;;;;;;3.53;2.20;;;;;;;;;;6355632;27;20040;-69
2023/03/16 06:52:26;;;;;;;4.32;2.72;;;;;;;;;;6359567;27;20058;-70
2023/03/16 06:55:28;;;;;;;6.15;2.22;;;;;;;;;;6358778;27;20051;-69
2023/03/16 06:58:31;;;;;;;6.75;2.40;;;;;;;;;;6362323;27;20070;-70
2023/03/16 07:01:33;;;;;;;6.50;2.47;;;;;;;;;;6361485;27;20082;-67
2023/03/16 07:04:34;;;;;;;7.15;2.67;;;;;;;;;;6360710;27;20051;-68
2023/03/16 07:07:38;;;;;;;8.88;2.70;;;;;;;;;;6358213;27;20051;-70
2023/03/16 07:10:39;;;;;;;5.28;2.40;;;;;;;;;;6359973;27;20157;-69
2023/03/16 07:13:43;;;;;;;2.88;2.05;;;;;;;;;;6360286;28;20043;-69
2023/03/16 07:16:44;;;;;;;3.83;2.33;;;;;;;;;;6363486;27;20058;-68
2023/03/16 07:19:46;;;;;;;4.72;2.38;;;;;;;;;;6362920;27;20069;-69
2023/03/16 07:22:49;;;;;;;7.72;2.50;;;;;;;;;;6363844;27;20062;-66
2023/03/16 07:25:51;;;;;;;4.07;2.35;;;;;;;;;;6364610;27;20047;-69
2023/03/16 07:28:53;;;;;;;4.47;1.90;;;;;;;;;;6366609;27;20044;-69
2023/03/16 07:31:55;;;;;;;4.53;2.03;;;;;;;;;;6364522;27;20100;-69
2023/03/16 07:34:58;;;;;;;6.05;1.90;;;;;;;;;;6363273;27;20055;-69
2023/03/16 07:38:01;;;;;;;5.17;2.17;;;;;;;;;;6365883;27;20051;-69
2023/03/16 07:41:03;;;;;;;3.22;1.90;;;;;;;;;;6363104;27;20216;-68
2023/03/16 07:44:05;;;;;;;2.95;1.88;;;;;;;;;;6365090;27;20054;-69
2023/03/16 07:47:07;;;;;;;9.15;2.38;;;;;;;;;;6361972;27;20039;-70
2023/03/16 07:50:12;;;;;;;3.03;1.98;;;;;;;;;;6362941;27;20054;-68
2023/03/16 07:53:15;;;;;;;5.85;1.98;;;;;;;;;;6364365;27;20153;-70
2023/03/16 07:56:17;;;;;;;5.03;2.95;;;;;;;;;;6366239;27;20047;-69
2023/03/16 07:59:19;;;;;;;3.05;1.50;;;;;;;;;;6365324;27;20051;-68
2023/03/16 08:02:25;;;;;;;3.67;1.70;;;;;;;;;;6364609;27;20052;-69
2023/03/16 08:05:28;;;;;;;6.78;1.55;;;;;;;;;;6362056;27;20071;-69
2023/03/16 08:08:31;;;;;;;4.45;2.22;;;;;;;;;;6363862;27;20243;-69
2023/03/16 08:11:33;;;;;;;4.93;2.08;;;;;;;;;;6365850;27;20043;-70
2023/03/16 08:14:35;;;;;;;4.47;2.05;;;;;;;;;;6361332;27;20055;-68
2023/03/16 08:17:40;;;;;;;1.98;1.48;;;;;;;;;;6361583;27;20075;-70
2023/03/16 08:20:45;;;;;;;3.65;1.70;;;;;;;;;;6363058;27;20051;-69
2023/03/16 08:23:49;;;;;;;3.50;1.80;;;;;;;;;;6363550;27;20043;-70
2023/03/16 08:26:50;;;;;;;4.68;1.67;;;;;;;;;;6362175;27;20047;-70
2023/03/16 08:29:53;;;;;;;1.98;1.25;;;;;;;;;;6362245;27;20055;-69
2023/03/16 08:32:56;;;;;;;6.85;1.67;;;;;;;;;;6360681;27;20956;-69
2023/03/16 08:35:57;;;;;;;2.67;1.33;;;;;;;;;;6365205;27;20067;-69
2023/03/16 08:39:00;;;;;;;2.78;1.27;;;;;;;;;;6362636;27;20051;-69
2023/03/16 08:42:02;;;;;;;2.87;1.40;;;;;;;;;;6365127;27;20370;-69
2023/03/16 08:45:08;;;;;;;3.28;1.55;;;;;;;;;;6364195;27;20050;-69
2023/03/16 08:48:11;;;;;;;2.55;1.30;;;;;;;;;;6360960;27;20078;-69
2023/03/16 08:54:57;;;;;;;2.75;1.42;;;;;;;;;;6271680;28;20062;-69
2023/03/16 08:57:59;;;;;;;1.75;1.23;;;;;;;;;;6294618;28;21137;-66
2023/03/16 09:01:02;;;;;;;6.88;1.48;;;;;;;;;;6292360;28;20059;-69
2023/03/16 09:04:04;;;;;;;2.92;1.33;;;;;;;;;;6295812;28;20053;-67
2023/03/16 09:07:21;;;;;;;6.20;1.23;;;;;;;;;;6292770;28;20151;-70
2023/03/16 09:10:26;;;;;;;3.17;1.20;;;;;;;;;;6295585;28;20320;-69
2023/03/16 09:13:28;;;;;;;3.60;1.50;;;;;;;;;;6293135;28;20120;-70
2023/03/16 09:16:37;;;;;;;3.60;1.80;;;;;;;;;;6293835;28;20044;-70
2023/03/16 09:19:39;;;;;;;4.47;1.58;;;;;;;;;;6291690;28;20113;-70
2023/03/16 09:22:41;;;;;;;4.07;1.52;;;;;;;;;;6293789;28;20053;-68
2023/03/16 09:25:44;;;;;;;5.47;1.73;;;;;;;;;;6293457;28;20071;-69
2023/03/16 09:28:48;;;;;;;3.87;1.83;;;;;;;;;;6287001;28;20398;-71
2023/03/16 09:31:50;;;;;;;7.65;2.00;;;;;;;;;;6334143;27;20043;-69
2023/03/16 09:34:52;;;;;;;3.88;1.90;;;;;;;;;;6361810;27;20046;-68
2023/03/16 09:37:54;;;;;;;2.72;1.70;;;;;;;;;;6361300;27;20051;-70
2023/03/16 09:41:03;;;;;;;3.78;1.48;;;;;;;;;;6361013;27;20059;-70
2023/03/16 09:44:21;;;;;;;3.30;1.60;;;;;;;;;;6361678;27;20093;-70
2023/03/16 09:47:26;;;;;;;2.70;1.70;;;;;;;;;;6362601;27;20063;-70
2023/03/16 09:50:34;;;;;;;3.45;1.60;;;;;;;;;;6361962;27;20077;-70
2023/03/16 09:53:38;;;;;;;2.40;1.50;;;;;;;;;;6361527;27;20179;-69
2023/03/16 09:56:43;;;;;;;5.03;1.48;;;;;;;;;;6359480;27;20385;-70
2023/03/16 09:59:45;;;;;;;3.97;1.70;;;;;;;;;;6361040;27;20127;-70
2023/03/16 10:02:56;;;;;;;2.90;1.90;;;;;;;;;;6361528;27;20108;-70
2023/03/16 10:06:00;;;;;;;2.75;1.70;;;;;;;;;;6363753;27;20043;-70
2023/03/16 10:09:07;;;;;;;4.47;1.60;;;;;;;;;;6363943;27;20050;-66
2023/03/16 10:12:14;;;;;;;4.22;1.70;;;;;;;;;;6362450;27;20316;-70
2023/03/16 10:15:33;;;;;;;3.38;1.50;;;;;;;;;;6362487;27;20043;-69
2023/03/16 10:18:41;;;;;;;2.92;1.35;;;;;;;;;;6357720;27;20043;-69
2023/03/16 10:21:43;;;;;;;4.00;1.50;;;;;;;;;;6360844;27;20088;-69
2023/03/16 10:24:52;;;;;;;5.80;1.90;;;;;;;;;;6363912;27;20077;-70
2023/03/16 10:27:56;;;;;;;3.45;1.77;;;;;;;;;;6361033;28;20112;-70
2023/03/16 10:31:04;;;;;;;3.05;1.70;;;;;;;;;;6361540;28;20102;-69
2023/03/16 10:34:07;;;;;;;3.92;1.80;;;;;;;;;;6360932;27;20054;-69
2023/03/16 10:37:13;;;;;;;3.22;1.90;;;;;;;;;;6362657;27;20104;-70
2023/03/16 10:40:19;;;;;;;4.18;1.60;;;;;;;;;;6363152;28;20129;-70
2023/03/16 10:43:26;;;;;;;3.33;2.05;;;;;;;;;;6360896;28;20146;-70
2023/03/16 10:46:28;;;;;;;2.38;1.50;;;;;;;;;;6358225;28;20144;-70
2023/03/16 10:49:50;;;;;;;3.22;1.73;;;;;;;;;;6352386;27;20111;-70
2023/03/16 10:52:54;;;;;;;2.53;1.83;;;;;;;;;;6363632;27;20052;-69
2023/03/16 10:56:00;;;;;;;5.15;2.10;;;;;;;;;;6365077;27;20649;-69
2023/03/16 10:59:14;;;;;;;5.90;2.20;;;;;;;;;;6365769;27;20055;-68
2023/03/16 11:02:18;;;;;;;3.40;2.50;;;;;;;;;;6366391;27;20058;-70
2023/03/16 11:05:29;;;;;;;3.28;1.83;;;;;;;;;;6366898;27;20260;-69
2023/03/16 11:08:32;;;;;;;6.80;2.80;;;;;;;;;;6367612;27;20043;-70
2023/03/16 11:11:35;;;;;;;4.05;2.55;;;;;;;;;;6364457;27;20059;-68
2023/03/16 11:14:38;;;;;;;4.28;2.15;;;;;;;;;;6365050;27;20707;-70
2023/03/16 11:17:43;;;;;;;5.15;1.90;;;;;;;;;;6367574;27;20050;-70
2023/03/16 11:20:46;;;;;;;5.13;2.05;;;;;;;;;;6366032;27;20043;-66
2023/03/16 11:23:50;;;;;;;3.20;2.10;;;;;;;;;;6364563;27;20103;-70
2023/03/16 11:26:54;;;;;;;3.65;1.95;;;;;;;;;;6364438;27;20043;-69
2023/03/16 11:30:05;;;;;;;5.10;2.00;;;;;;;;;;6366169;27;20042;-70
2023/03/16 11:33:09;;;;;;;5.07;2.10;;;;;;;;;;6362863;27;20051;-69
2023/03/16 11:36:24;;;;;;;2.85;2.30;;;;;;;;;;6365659;27;20051;-67
2023/03/16 11:39:32;;;;;;;4.88;2.30;;;;;;;;;;6365379;27;20062;-69
2023/03/16 11:42:38;;;;;;;7.50;2.13;;;;;;;;;;6368778;27;20062;-69
2023/03/16 11:45:46;;;;;;;5.63;2.40;;;;;;;;;;6365629;27;20335;-69
2023/03/16 11:49:13;;;;;;;3.35;2.10;;;;;;;;;;6364942;27;20131;-70
2023/03/16 11:52:22;;;;;;;4.28;2.40;;;;;;;;;;6357903;27;20272;-69
2023/03/16 11:55:33;;;;;;;5.57;2.55;;;;;;;;;;6363507;27;20047;-70
2023/03/16 11:58:50;;;;;;;4.78;2.42;;;;;;;;;;6365429;27;20068;-70
2023/03/16 12:02:01;;;;;;;4.60;2.30;;;;;;;;;;6362715;27;20066;-69
2023/03/16 12:05:22;;;;;;;4.65;2.72;;;;;;;;;;6364532;27;20093;-69
2023/03/16 12:09:01;;;;;;;3.83;2.63;;;;;;;;;;6363712;27;20051;-68
2023/03/16 12:12:08;;;;;;;4.63;2.67;;;;;;;;;;6362925;27;20047;-70
2023/03/16 12:15:23;;;;;;;4.75;3.20;;;;;;;;;;6364546;27;20326;-69
2023/03/16 12:18:29;;;;;;;6.82;3.35;;;;;;;;;;6364205;27;20068;-71
2023/03/16 12:21:34;;;;;;;4.70;2.75;;;;;;;;;;6362103;27;20051;-69
2023/03/16 12:24:42;;;;;;;4.55;3.10;;;;;;;;;;6362524;27;20259;-70
2023/03/16 12:27:46;;;;;;;6.32;3.08;;;;;;;;;;6362802;27;20123;-70
2023/03/16 12:30:53;;;;;;;4.25;3.00;;;;;;;;;;6361001;27;20258;-70
2023/03/16 12:34:07;;;;;;;5.55;3.17;;;;;;;;;;6361704;27;20220;-70
2023/03/16 12:37:16;;;;;;;3.47;2.92;;;;;;;;;;6359517;27;20074;-70
2023/03/16 12:40:25;;;;;;;6.05;3.03;;;;;;;;;;6363378;27;20201;-70
2023/03/16 12:43:37;;;;;;;4.57;2.97;;;;;;;;;;6363288;27;20055;-72
2023/03/16 12:46:45;;;;;;;15.70;13.00;;;;;;;;;;6359849;27;20055;-73
2023/03/16 12:49:49;;;;;;;18.73;12.95;;;;;;;;;;6359843;27;20058;-75
2023/03/16 12:52:53;;;;;;;20.30;13.88;;;;;;;;;;6362318;27;20054;-76
2023/03/16 12:55:57;;;;;;;4.07;3.67;;;;;;;;;;6361351;27;20055;-71
2023/03/16 12:59:01;;;;;;;6.97;3.40;;;;;;;;;;6366110;27;20051;-69
2023/03/16 13:02:05;;;;;;;4.45;3.50;;;;;;;;;;6362334;27;20348;-70
2023/03/16 13:05:10;;;;;;;6.22;3.60;;;;;;;;;;6361671;27;20757;-68
2023/03/16 13:08:14;;;;;;;4.07;3.55;;;;;;;;;;6361344;27;20044;-69
2023/03/16 13:11:16;;;;;;;5.13;3.42;;;;;;;;;;6361444;27;20043;-71
2023/03/16 13:14:34;;;;;;;6.20;3.70;;;;;;;;;;6358794;27;20113;-70
2023/03/16 13:17:36;;;;;;;4.10;3.33;;;;;;;;;;6364463;27;20043;-70
2023/03/16 13:20:51;;;;;;;7.57;4.13;;;;;;;;;;6360854;27;20063;-70
2023/03/16 13:23:58;;;;;;;4.55;3.67;;;;;;;;;;6360748;27;20059;-70
2023/03/16 13:27:02;;;;;;;8.07;4.03;;;;;;;;;;6357972;27;20051;-69
2023/03/16 13:30:16;;;;;;;8.32;4.28;;;;;;;;;;6360610;27;20331;-70
2023/03/16 13:33:21;;;;;;;5.63;4.18;;;;;;;;;;6361716;27;20043;-70
2023/03/16 13:36:24;;;;;;;7.13;4.18;;;;;;;;;;6359678;27;20066;-70
2023/03/16 13:39:27;;;;;;;6.53;4.32;;;;;;;;;;6361668;27;20077;-69
2023/03/16 13:42:31;;;;;;;5.13;3.95;;;;;;;;;;6365470;27;20051;-70
2023/03/16 13:45:34;;;;;;;6.00;4.13;;;;;;;;;;6360312;27;20153;-70
2023/03/16 13:48:39;;;;;;;5.03;4.00;;;;;;;;;;6356323;27;20058;-69
2023/03/16 13:51:44;;;;;;;6.28;4.20;;;;;;;;;;6360616;27;20051;-71
2023/03/16 13:54:46;;;;;;;6.07;4.10;;;;;;;;;;6363962;27;20059;-71
2023/03/16 13:57:49;;;;;;;10.73;8.10;;;;;;;;;;6360212;27;20047;-78
2023/03/16 14:00:55;;;;;;;13.05;9.60;;;;;;;;;;6354676;27;20122;-76
2023/03/16 14:04:02;;;;;;;16.75;14.30;;;;;;;;;;6360475;27;20048;-77
2023/03/16 14:07:05;;;;;;;9.13;4.82;;;;;;;;;;6361437;27;20039;-70
2023/03/16 14:10:09;;;;;;;6.85;4.55;;;;;;;;;;6361675;27;20051;-70
2023/03/16 14:13:32;;;;;;;5.43;4.65;;;;;;;;;;6358149;27;20350;-71
2023/03/16 14:16:35;;;;;;;5.05;4.10;;;;;;;;;;6355628;27;20351;-71
2023/03/16 14:19:41;;;;;;;4.95;4.35;;;;;;;;;;6360546;27;20320;-69
2023/03/16 14:22:45;;;;;;;5.10;4.35;;;;;;;;;;6361644;27;20174;-71
2023/03/16 14:25:47;;;;;;;6.18;4.07;;;;;;;;;;6361664;27;20055;-71
2023/03/16 14:28:58;;;;;;;4.82;4.25;;;;;;;;;;6360069;27;20058;-71
2023/03/16 14:32:00;;;;;;;5.78;4.32;;;;;;;;;;6363767;28;20071;-69
2023/03/16 14:35:11;;;;;;;7.43;4.40;;;;;;;;;;6359148;28;20063;-70
2023/03/16 14:38:22;;;;;;;4.70;4.07;;;;;;;;;;6359811;28;20051;-71
2023/03/16 14:41:25;;;;;;;6.13;4.22;;;;;;;;;;6360466;28;20406;-71
2023/03/16 14:44:31;;;;;;;7.40;4.60;;;;;;;;;;6360112;27;20126;-71
2023/03/16 14:47:39;;;;;;;5.47;4.20;;;;;;;;;;6359050;27;20048;-70
2023/03/16 14:50:44;;;;;;;5.70;4.43;;;;;;;;;;6360046;28;20391;-71
2023/03/16 14:53:47;;;;;;;5.80;4.70;;;;;;;;;;6360754;28;20063;-70
2023/03/16 14:56:49;;;;;;;;;;;;;;;;;;6361809;28;20358;-71
2023/03/16 14:59:51;;;;;;;5.18;4.40;;;;;;;;;;6359395;28;19923;-70
2023/03/16 15:02:58;;;;;;;6.20;4.15;;;;;;;;;;6359625;28;20314;-71
2023/03/16 15:06:00;;;;;;;4.38;3.97;;;;;;;;;;6361288;28;20047;-71
2023/03/16 15:09:03;;;;;;;6.03;4.73;;;;;;;;;;6361381;27;20282;-71
2023/03/16 15:12:13;;;;;;;5.28;4.38;;;;;;;;;;6361106;28;20502;-71
2023/03/16 15:15:17;;;;;;;6.07;4.70;;;;;;;;;;6350944;28;20067;-71
2023/03/16 15:18:19;;;;;;;5.78;4.40;;;;;;;;;;6359515;27;20906;-70
2023/03/16 15:21:22;;;;;;;4.18;3.67;;;;;;;;;;6356771;28;20039;-71
2023/03/16 15:24:27;;;;;;;;;;;;;;;;;;6360585;27;20077;-70
2023/03/16 15:27:33;;;;;;;5.50;3.88;;;;;;;;;;6359620;28;19923;-70
2023/03/16 15:30:34;;;;;;;5.70;4.28;;;;;;;;;;6352591;28;20051;-71
2023/03/16 15:33:36;;;;;;;4.85;3.70;;;;;;;;;;6351224;28;20076;-70
2023/03/16 15:36:38;;;;;;;5.85;4.07;;;;;;;;;;6362945;27;20052;-71
2023/03/16 15:39:41;;;;;;;4.80;4.20;;;;;;;;;;6360179;27;20060;-69
2023/03/16 15:42:43;;;;;;;5.50;4.10;;;;;;;;;;6362598;27;20039;-68
2023/03/16 15:45:46;;;;;;;4.55;3.45;;;;;;;;;;6363004;27;20055;-69
2023/03/16 15:48:47;;;;;;;5.35;3.90;;;;;;;;;;6365107;27;20054;-66
2023/03/16 15:51:49;;;;;;;5.70;3.88;;;;;;;;;;6359947;27;20425;-67
2023/03/16 15:54:52;;;;;;;5.53;4.60;;;;;;;;;;6365137;27;20104;-70
2023/03/16 15:57:57;;;;;;;6.65;4.72;;;;;;;;;;6361785;27;20088;-68
2023/03/16 16:01:00;;;;;;;4.65;3.95;;;;;;;;;;6365030;27;20084;-69
2023/03/16 16:04:02;;;;;;;5.50;4.70;;;;;;;;;;6366866;27;20779;-69
2023/03/16 16:07:09;;;;;;;6.22;4.60;;;;;;;;;;6352224;27;20108;-68
2023/03/16 16:10:15;;;;;;;4.68;4.18;;;;;;;;;;6350468;27;20164;-68
2023/03/16 16:13:19;;;;;;;11.45;4.50;;;;;;;;;;6360796;27;20057;-69
2023/03/16 16:16:21;;;;;;;5.95;4.68;;;;;;;;;;6362780;27;20043;-69
2023/03/16 16:19:24;;;;;;;7.38;5.32;;;;;;;;;;6362090;27;20339;-69
2023/03/16 16:22:27;;;;;;;7.45;4.80;;;;;;;;;;6362928;27;20058;-69
2023/03/16 16:25:35;;;;;;;6.38;4.82;;;;;;;;;;6364045;27;20051;-69
2023/03/16 16:28:36;;;;;;;7.20;4.72;;;;;;;;;;6363837;27;20093;-68
2023/03/16 16:31:38;;;;;;;5.63;4.78;;;;;;;;;;6361309;27;20059;-69
2023/03/16 16:34:40;;;;;;;5.82;4.97;;;;;;;;;;6355591;27;20056;-69
2023/03/16 16:37:43;;;;;;;7.03;4.90;;;;;;;;;;6363222;27;20077;-69
2023/03/16 16:40:47;;;;;;;6.45;5.35;;;;;;;;;;6364112;27;20093;-67
2023/03/16 16:43:49;;;;;;;8.57;5.22;;;;;;;;;;6357819;27;20115;-68
2023/03/16 16:46:51;;;;;;;9.40;5.20;;;;;;;;;;6363972;27;20059;-70
2023/03/16 16:49:52;;;;;;;6.97;5.22;;;;;;;;;;6350123;27;20109;-69
2023/03/16 16:52:56;;;;;;;6.68;5.10;;;;;;;;;;6361383;27;20051;-68
2023/03/16 16:55:59;;;;;;;7.65;5.22;;;;;;;;;;6363738;27;20059;-66
2023/03/16 16:59:06;;;;;;;5.93;4.85;;;;;;;;;;6362402;27;20178;-69
2023/03/16 17:02:24;;;;;;;6.05;4.63;;;;;;;;;;6363692;27;20051;-69
2023/03/16 17:05:27;;;;;;;8.75;5.72;;;;;;;;;;6359613;27;20243;-69
2023/03/16 17:08:28;;;;;;;9.77;5.43;;;;;;;;;;6361432;27;20048;-67
2023/03/16 17:11:32;;;;;;;6.82;5.10;;;;;;;;;;6357899;27;20051;-69
2023/03/16 17:14:33;;;;;;;6.35;5.00;;;;;;;;;;6364057;27;20224;-69
2023/03/16 17:17:36;;;;;;;8.07;4.72;;;;;;;;;;6355908;27;20051;-68
2023/03/16 17:20:37;;;;;;;10.05;5.28;;;;;;;;;;6360048;27;20043;-68
2023/03/16 17:23:39;;;;;;;9.27;5.00;;;;;;;;;;6353973;27;20047;-69
2023/03/16 17:26:44;;;;;;;9.65;5.20;;;;;;;;;;6353078;27;20286;-69
2023/03/16 17:29:46;;;;;;;8.32;5.28;;;;;;;;;;6360793;27;20213;-66
2023/03/16 17:32:49;;;;;;;8.75;5.53;;;;;;;;;;6357783;27;20185;-68
2023/03/16 17:35:51;;;;;;;8.67;6.40;;;;;;;;;;6363996;27;20073;-69
2023/03/16 17:38:52;;;;;;;8.90;6.10;;;;;;;;;;6361857;27;20310;-70
2023/03/16 17:41:57;;;;;;;8.32;5.95;;;;;;;;;;6359634;27;20147;-69
2023/03/16 17:44:59;;;;;;;7.65;5.30;;;;;;;;;;6362967;27;20258;-69
2023/03/16 17:48:01;;;;;;;10.05;5.72;;;;;;;;;;6360491;27;20051;-67
2023/03/16 17:51:06;;;;;;;7.80;5.70;;;;;;;;;;6360723;27;20319;-68
2023/03/16 17:54:08;;;;;;;8.77;6.05;;;;;;;;;;6362914;27;20102;-69
2023/03/16 17:57:15;;;;;;;10.70;6.47;;;;;;;;;;6346971;27;20051;-68
2023/03/16 18:00:27;;;;;;;10.82;6.55;;;;;;;;;;6362167;27;20131;-69
2023/03/16 18:03:29;;;;;;;13.23;7.50;;;;;;;;;;6361104;27;20054;-68
2023/03/16 18:06:31;;;;;;;9.30;7.07;;;;;;;;;;6359856;27;20063;-68
2023/03/16 18:09:33;;;;;;;12.68;7.72;;;;;;;;;;6357124;27;20069;-69
2023/03/16 18:12:36;;;;;;;11.10;7.15;;;;;;;;;;6359985;27;20092;-69
2023/03/16 18:15:38;;;;;;;10.20;6.45;;;;;;;;;;6361029;27;20309;-66
2023/03/16 18:18:42;;;;;;;9.77;6.30;;;;;;;;;;6362947;27;20103;-69
2023/03/16 18:21:53;;;;;;;8.30;5.80;;;;;;;;;;6358833;27;20047;-70
2023/03/16 18:24:55;;;;;;;10.40;5.53;;;;;;;;;;6352442;27;20049;-69
2023/03/16 18:28:00;;;;;;;8.80;5.80;;;;;;;;;;6355088;27;20043;-69
2023/03/16 18:31:03;;;;;;;17.10;6.07;;;;;;;;;;6365552;27;20130;-69
2023/03/16 18:34:06;;;;;;;7.80;4.80;;;;;;;;;;6367539;27;20216;-68
2023/03/16 18:37:13;;;;;;;11.50;4.88;;;;;;;;;;6365264;28;20067;-70
2023/03/16 18:40:18;;;;;;;10.32;5.13;;;;;;;;;;6360521;27;20051;-68
2023/03/16 18:43:21;;;;;;;6.60;4.90;;;;;;;;;;6353274;27;20339;-69